sensor_id;sensor_type;location;lat;lon;timestamp;temperature;humidity
18067;DHT22;9158;51.528;7.192;2023-04-01T00:00:13;9.60;99.90
18067;DHT22;9158;51.528;7.192;2023-04-01T00:00:44;9.60;99.90
18067;DHT22;9158;51.528;7.192;2023-04-01T00:01:16;9.60;99.90
18067;DHT22;9158;51.528;7.192;2023-04-01T00:01:48;9.60;99.90
18067;DHT22;9158;51.528;7.192;2023-04-01T00:02:20;9.60;99.90
18067;DHT22;9158;51.528;7.192;2023-04-01T00:02:52;9.60;99.90
18067;DHT22;9158;51.528;7.192;2023-04-01T00:03:24;9.60;99.90
18067;DHT22;9158;51.528;7.192;2023-04-01T00:03:56;9.60;99.90
18067;DHT22;9158;51.528;7.192;2023-04-01T00:04:28;9.60;99.90
18067;DHT22;9158;51.528;7.192;2023-04-01T00:04:59;9.60;99.90
18067;DHT22;9158;51.528;7.192;2023-04-01T00:05:31;9.60;99.90
18067;DHT22;9158;51.528;7.192;2023-04-01T00:06:03;9.60;99.90
18067;DHT22;9158;51.528;7.192;2023-04-01T00:06:34;9.60;99.90
18067;DHT22;9158;51.528;7.192;2023-04-01T00:07:05;9.60;99.90
18067;DHT22;9158;51.528;7.192;2023-04-01T00:07:37;9.60;99.90
18067;DHT22;9158;51.528;7.192;2023-04-01T00:08:08;9.60;99.90
18067;DHT22;9158;51.528;7.192;2023-04-01T00:08:40;9.60;99.90
18067;DHT22;9158;51.528;7.192;2023-04-01T00:09:11;9.60;99.90
18067;DHT22;9158;51.528;7.192;2023-04-01T00:09:43;9.60;99.90
18067;DHT22;9158;51.528;7.192;2023-04-01T00:10:14;9.60;99.90
18067;DHT22;9158;51.528;7.192;2023-04-01T00:10:46;9.60;99.90
18067;DHT22;9158;51.528;7.192;2023-04-01T00:11:18;9.50;1.00
18067;DHT22;9158;51.528;7.192;2023-04-01T00:11:49;9.50;1.00
18067;DHT22;9158;51.528;7.192;2023-04-01T00:12:21;9.50;1.00
18067;DHT22;9158;51.528;7.192;2023-04-01T00:12:52;9.50;1.00
18067;DHT22;9158;51.528;7.192;2023-04-01T00:13:24;9.50;1.00
18067;DHT22;9158;51.528;7.192;2023-04-01T00:13:57;9.50;1.00
18067;DHT22;9158;51.528;7.192;2023-04-01T00:14:28;9.50;1.00
18067;DHT22;9158;51.528;7.192;2023-04-01T00:14:59;9.50;1.00
18067;DHT22;9158;51.528;7.192;2023-04-01T00:15:31;9.50;1.00
18067;DHT22;9158;51.528;7.192;2023-04-01T00:16:03;9.50;1.00
18067;DHT22;9158;51.528;7.192;2023-04-01T00:16:34;9.50;1.00
18067;DHT22;9158;51.528;7.192;2023-04-01T00:17:06;9.50;1.00
18067;DHT22;9158;51.528;7.192;2023-04-01T00:17:39;9.50;1.00
18067;DHT22;9158;51.528;7.192;2023-04-01T00:18:11;9.50;1.00
18067;DHT22;9158;51.528;7.192;2023-04-01T00:18:43;9.50;1.00
18067;DHT22;9158;51.528;7.192;2023-04-01T00:19:15;9.50;1.00
18067;DHT22;9158;51.528;7.192;2023-04-01T00:19:46;9.40;1.00
18067;DHT22;9158;51.528;7.192;2023-04-01T00:20:17;9.40;1.00
18067;DHT22;9158;51.528;7.192;2023-04-01T00:20:51;9.50;1.00
18067;DHT22;9158;51.528;7.192;2023-04-01T00:21:22;9.40;99.90
18067;DHT22;9158;51.528;7.192;2023-04-01T00:21:53;9.40;99.90
18067;DHT22;9158;51.528;7.192;2023-04-01T00:22:26;9.40;99.90
18067;DHT22;9158;51.528;7.192;2023-04-01T00:22:57;9.40;99.90
18067;DHT22;9158;51.528;7.192;2023-04-01T00:23:28;9.40;99.90
18067;DHT22;9158;51.528;7.192;2023-04-01T00:24:00;9.40;99.90
18067;DHT22;9158;51.528;7.192;2023-04-01T00:24:31;9.40;99.90
18067;DHT22;9158;51.528;7.192;2023-04-01T00:25:03;9.40;99.90
18067;DHT22;9158;51.528;7.192;2023-04-01T00:25:36;9.40;99.90
18067;DHT22;9158;51.528;7.192;2023-04-01T00:26:07;9.40;99.90
18067;DHT22;9158;51.528;7.192;2023-04-01T00:26:38;9.40;96.80
18067;DHT22;9158;51.528;7.192;2023-04-01T00:27:11;9.40;99.90
18067;DHT22;9158;51.528;7.192;2023-04-01T00:27:42;9.40;99.90
18067;DHT22;9158;51.528;7.192;2023-04-01T00:28:14;9.40;99.90
18067;DHT22;9158;51.528;7.192;2023-04-01T00:28:46;9.40;99.90
18067;DHT22;9158;51.528;7.192;2023-04-01T00:29:17;9.40;99.90
18067;DHT22;9158;51.528;7.192;2023-04-01T00:29:48;9.40;99.90
18067;DHT22;9158;51.528;7.192;2023-04-01T00:30:20;9.50;99.90
18067;DHT22;9158;51.528;7.192;2023-04-01T00:30:52;9.50;99.90
18067;DHT22;9158;51.528;7.192;2023-04-01T00:31:23;9.50;99.90
18067;DHT22;9158;51.528;7.192;2023-04-01T00:31:55;9.40;99.90
18067;DHT22;9158;51.528;7.192;2023-04-01T00:32:27;9.40;71.20
18067;DHT22;9158;51.528;7.192;2023-04-01T00:32:59;9.40;38.10
18067;DHT22;9158;51.528;7.192;2023-04-01T00:33:31;9.40;34.50
18067;DHT22;9158;51.528;7.192;2023-04-01T00:34:03;9.40;1.10
18067;DHT22;9158;51.528;7.192;2023-04-01T00:34:34;9.40;1.00
18067;DHT22;9158;51.528;7.192;2023-04-01T00:35:07;9.50;3.20
18067;DHT22;9158;51.528;7.192;2023-04-01T00:35:39;9.50;19.20
18067;DHT22;9158;51.528;7.192;2023-04-01T00:36:12;9.50;43.70
18067;DHT22;9158;51.528;7.192;2023-04-01T00:36:43;9.50;59.40
18067;DHT22;9158;51.528;7.192;2023-04-01T00:37:16;9.40;99.90
18067;DHT22;9158;51.528;7.192;2023-04-01T00:37:47;9.40;88.00
18067;DHT22;9158;51.528;7.192;2023-04-01T00:38:18;9.40;48.60
18067;DHT22;9158;51.528;7.192;2023-04-01T00:38:50;9.40;86.80
18067;DHT22;9158;51.528;7.192;2023-04-01T00:39:22;9.40;52.10
18067;DHT22;9158;51.528;7.192;2023-04-01T00:39:53;9.40;99.90
18067;DHT22;9158;51.528;7.192;2023-04-01T00:40:28;9.50;99.90
18067;DHT22;9158;51.528;7.192;2023-04-01T00:41:00;9.50;99.90
18067;DHT22;9158;51.528;7.192;2023-04-01T00:41:32;9.40;99.90
18067;DHT22;9158;51.528;7.192;2023-04-01T00:42:04;9.40;99.90
18067;DHT22;9158;51.528;7.192;2023-04-01T00:42:35;9.40;99.90
18067;DHT22;9158;51.528;7.192;2023-04-01T00:43:11;9.40;99.90
18067;DHT22;9158;51.528;7.192;2023-04-01T00:43:46;9.40;99.90
18067;DHT22;9158;51.528;7.192;2023-04-01T00:44:19;9.40;99.90
18067;DHT22;9158;51.528;7.192;2023-04-01T00:44:52;9.40;99.90
18067;DHT22;9158;51.528;7.192;2023-04-01T00:45:30;9.40;99.90
18067;DHT22;9158;51.528;7.192;2023-04-01T00:46:03;9.40;99.90
18067;DHT22;9158;51.528;7.192;2023-04-01T00:46:35;9.40;99.90
18067;DHT22;9158;51.528;7.192;2023-04-01T00:47:07;9.40;99.90
18067;DHT22;9158;51.528;7.192;2023-04-01T00:47:38;9.40;99.90
18067;DHT22;9158;51.528;7.192;2023-04-01T00:48:14;9.40;99.90
18067;DHT22;9158;51.528;7.192;2023-04-01T00:48:49;9.40;99.90
18067;DHT22;9158;51.528;7.192;2023-04-01T00:49:23;9.40;99.90
18067;DHT22;9158;51.528;7.192;2023-04-01T00:49:55;9.40;99.90
18067;DHT22;9158;51.528;7.192;2023-04-01T00:50:29;9.40;99.90
18067;DHT22;9158;51.528;7.192;2023-04-01T00:51:05;9.40;99.90
18067;DHT22;9158;51.528;7.192;2023-04-01T00:51:37;9.40;1.00
18067;DHT22;9158;51.528;7.192;2023-04-01T00:52:14;9.40;1.00
18067;DHT22;9158;51.528;7.192;2023-04-01T00:52:46;9.40;1.00
18067;DHT22;9158;51.528;7.192;2023-04-01T00:53:18;9.40;1.00
18067;DHT22;9158;51.528;7.192;2023-04-01T00:53:53;9.40;1.00
18067;DHT22;9158;51.528;7.192;2023-04-01T00:54:25;9.40;1.00
18067;DHT22;9158;51.528;7.192;2023-04-01T00:55:00;9.40;1.00
18067;DHT22;9158;51.528;7.192;2023-04-01T00:55:35;9.40;1.00
18067;DHT22;9158;51.528;7.192;2023-04-01T00:56:11;9.40;1.00
18067;DHT22;9158;51.528;7.192;2023-04-01T00:56:46;9.40;1.00
18067;DHT22;9158;51.528;7.192;2023-04-01T00:57:23;9.30;1.00
18067;DHT22;9158;51.528;7.192;2023-04-01T00:57:56;9.40;1.00
18067;DHT22;9158;51.528;7.192;2023-04-01T00:58:31;9.40;1.00
18067;DHT22;9158;51.528;7.192;2023-04-01T00:59:06;9.30;1.00
18067;DHT22;9158;51.528;7.192;2023-04-01T00:59:41;9.30;1.00
18067;DHT22;9158;51.528;7.192;2023-04-01T01:00:14;9.30;1.00
18067;DHT22;9158;51.528;7.192;2023-04-01T01:00:49;9.40;1.00
18067;DHT22;9158;51.528;7.192;2023-04-01T01:01:22;9.30;1.00
18067;DHT22;9158;51.528;7.192;2023-04-01T01:01:54;9.30;1.00
18067;DHT22;9158;51.528;7.192;2023-04-01T01:02:26;9.30;1.00
18067;DHT22;9158;51.528;7.192;2023-04-01T01:02:58;9.40;1.00
18067;DHT22;9158;51.528;7.192;2023-04-01T01:03:30;9.40;19.30
18067;DHT22;9158;51.528;7.192;2023-04-01T01:04:03;9.30;11.10
18067;DHT22;9158;51.528;7.192;2023-04-01T01:04:35;9.30;26.30
18067;DHT22;9158;51.528;7.192;2023-04-01T01:05:06;9.30;35.70
18067;DHT22;9158;51.528;7.192;2023-04-01T01:05:54;9.30;90.50
18067;DHT22;9158;51.528;7.192;2023-04-01T01:06:42;9.30;87.10
18067;DHT22;9158;51.528;7.192;2023-04-01T01:07:25;9.30;99.90
18067;DHT22;9158;51.528;7.192;2023-04-01T01:08:02;9.30;99.90
18067;DHT22;9158;51.528;7.192;2023-04-01T01:08:49;9.30;99.90
18067;DHT22;9158;51.528;7.192;2023-04-01T01:09:30;9.30;99.90
18067;DHT22;9158;51.528;7.192;2023-04-01T01:10:07;9.30;99.90
18067;DHT22;9158;51.528;7.192;2023-04-01T01:10:42;9.30;99.90
18067;DHT22;9158;51.528;7.192;2023-04-01T01:11:22;9.30;99.90
18067;DHT22;9158;51.528;7.192;2023-04-01T01:12:03;9.30;99.90
18067;DHT22;9158;51.528;7.192;2023-04-01T01:12:40;9.30;99.90
18067;DHT22;9158;51.528;7.192;2023-04-01T01:13:18;9.30;99.90
18067;DHT22;9158;51.528;7.192;2023-04-01T01:13:56;9.30;99.90
18067;DHT22;9158;51.528;7.192;2023-04-01T01:14:36;9.30;99.90
18067;DHT22;9158;51.528;7.192;2023-04-01T01:15:17;9.30;99.90
18067;DHT22;9158;51.528;7.192;2023-04-01T01:15:55;9.30;99.90
18067;DHT22;9158;51.528;7.192;2023-04-01T01:16:31;9.30;99.90
18067;DHT22;9158;51.528;7.192;2023-04-01T01:17:11;9.30;99.90
18067;DHT22;9158;51.528;7.192;2023-04-01T01:17:50;9.30;99.90
18067;DHT22;9158;51.528;7.192;2023-04-01T01:18:29;9.30;99.90
18067;DHT22;9158;51.528;7.192;2023-04-01T01:19:16;9.30;99.90
18067;DHT22;9158;51.528;7.192;2023-04-01T01:20:18;9.30;99.90
18067;DHT22;9158;51.528;7.192;2023-04-01T01:21:29;9.30;99.90
18067;DHT22;9158;51.528;7.192;2023-04-01T01:22:17;9.30;99.90
18067;DHT22;9158;51.528;7.192;2023-04-01T01:24:13;9.30;99.90
18067;DHT22;9158;51.528;7.192;2023-04-01T01:25:11;9.30;99.90
18067;DHT22;9158;51.528;7.192;2023-04-01T01:25:53;9.30;99.90
18067;DHT22;9158;51.528;7.192;2023-04-01T01:26:44;9.30;99.90
18067;DHT22;9158;51.528;7.192;2023-04-01T01:27:20;9.30;99.90
18067;DHT22;9158;51.528;7.192;2023-04-01T01:27:58;9.30;99.90
18067;DHT22;9158;51.528;7.192;2023-04-01T01:28:46;9.30;99.90
18067;DHT22;9158;51.528;7.192;2023-04-01T01:29:41;9.30;99.90
18067;DHT22;9158;51.528;7.192;2023-04-01T01:30:28;9.30;99.90
18067;DHT22;9158;51.528;7.192;2023-04-01T01:31:11;9.30;99.90
18067;DHT22;9158;51.528;7.192;2023-04-01T01:31:49;9.30;99.90
18067;DHT22;9158;51.528;7.192;2023-04-01T01:32:35;9.30;99.90
18067;DHT22;9158;51.528;7.192;2023-04-01T01:33:22;9.30;99.90
18067;DHT22;9158;51.528;7.192;2023-04-01T01:34:04;9.30;99.90
18067;DHT22;9158;51.528;7.192;2023-04-01T01:34:47;9.30;99.90
18067;DHT22;9158;51.528;7.192;2023-04-01T01:35:26;9.30;99.10
18067;DHT22;9158;51.528;7.192;2023-04-01T01:35:59;9.30;99.90
18067;DHT22;9158;51.528;7.192;2023-04-01T01:36:33;9.30;99.90
18067;DHT22;9158;51.528;7.192;2023-04-01T01:37:09;9.30;99.90
18067;DHT22;9158;51.528;7.192;2023-04-01T01:37:42;9.30;99.90
18067;DHT22;9158;51.528;7.192;2023-04-01T01:38:17;9.30;99.90
18067;DHT22;9158;51.528;7.192;2023-04-01T01:38:57;9.30;99.90
18067;DHT22;9158;51.528;7.192;2023-04-01T01:39:30;9.30;99.90
18067;DHT22;9158;51.528;7.192;2023-04-01T01:40:05;9.30;99.90
18067;DHT22;9158;51.528;7.192;2023-04-01T01:40:42;9.30;99.90
18067;DHT22;9158;51.528;7.192;2023-04-01T01:41:15;9.30;99.90
18067;DHT22;9158;51.528;7.192;2023-04-01T01:41:49;9.30;99.90
18067;DHT22;9158;51.528;7.192;2023-04-01T01:42:22;9.30;99.90
18067;DHT22;9158;51.528;7.192;2023-04-01T01:42:57;9.30;99.90
18067;DHT22;9158;51.528;7.192;2023-04-01T01:43:31;9.30;99.90
18067;DHT22;9158;51.528;7.192;2023-04-01T01:44:08;9.30;99.90
18067;DHT22;9158;51.528;7.192;2023-04-01T01:44:41;9.30;99.90
18067;DHT22;9158;51.528;7.192;2023-04-01T01:45:15;9.30;99.90
18067;DHT22;9158;51.528;7.192;2023-04-01T01:45:53;9.30;99.90
18067;DHT22;9158;51.528;7.192;2023-04-01T01:46:27;9.30;99.90
18067;DHT22;9158;51.528;7.192;2023-04-01T01:47:00;9.30;99.90
18067;DHT22;9158;51.528;7.192;2023-04-01T01:47:33;9.30;99.90
18067;DHT22;9158;51.528;7.192;2023-04-01T01:48:07;9.30;99.90
18067;DHT22;9158;51.528;7.192;2023-04-01T01:48:41;9.30;99.90
18067;DHT22;9158;51.528;7.192;2023-04-01T01:49:14;9.30;99.90
18067;DHT22;9158;51.528;7.192;2023-04-01T01:49:47;9.30;99.90
18067;DHT22;9158;51.528;7.192;2023-04-01T01:50:19;9.20;99.90
18067;DHT22;9158;51.528;7.192;2023-04-01T01:50:53;9.20;99.90
18067;DHT22;9158;51.528;7.192;2023-04-01T01:51:26;9.30;99.90
18067;DHT22;9158;51.528;7.192;2023-04-01T01:51:58;9.30;99.90
18067;DHT22;9158;51.528;7.192;2023-04-01T01:52:29;9.30;99.90
18067;DHT22;9158;51.528;7.192;2023-04-01T01:53:03;9.20;99.90
18067;DHT22;9158;51.528;7.192;2023-04-01T01:53:35;9.30;99.90
18067;DHT22;9158;51.528;7.192;2023-04-01T01:54:06;9.30;99.90
18067;DHT22;9158;51.528;7.192;2023-04-01T01:54:47;9.20;99.90
18067;DHT22;9158;51.528;7.192;2023-04-01T01:55:30;9.20;99.90
18067;DHT22;9158;51.528;7.192;2023-04-01T01:56:02;9.20;99.90
18067;DHT22;9158;51.528;7.192;2023-04-01T01:56:41;9.20;99.90
18067;DHT22;9158;51.528;7.192;2023-04-01T01:57:17;9.20;99.90
18067;DHT22;9158;51.528;7.192;2023-04-01T01:57:54;9.20;99.90
18067;DHT22;9158;51.528;7.192;2023-04-01T01:58:30;9.20;99.90
18067;DHT22;9158;51.528;7.192;2023-04-01T01:59:04;9.20;99.90
18067;DHT22;9158;51.528;7.192;2023-04-01T01:59:40;9.20;99.90
18067;DHT22;9158;51.528;7.192;2023-04-01T02:00:13;9.20;99.90
18067;DHT22;9158;51.528;7.192;2023-04-01T02:00:50;9.20;99.90
18067;DHT22;9158;51.528;7.192;2023-04-01T02:01:25;9.20;99.90
18067;DHT22;9158;51.528;7.192;2023-04-01T02:02:02;9.20;99.90
18067;DHT22;9158;51.528;7.192;2023-04-01T02:02:39;9.20;99.90
18067;DHT22;9158;51.528;7.192;2023-04-01T02:03:12;9.20;99.90
18067;DHT22;9158;51.528;7.192;2023-04-01T02:03:45;9.20;99.90
18067;DHT22;9158;51.528;7.192;2023-04-01T02:04:18;9.20;99.90
18067;DHT22;9158;51.528;7.192;2023-04-01T02:04:50;9.20;99.90
18067;DHT22;9158;51.528;7.192;2023-04-01T02:05:25;9.20;99.90
18067;DHT22;9158;51.528;7.192;2023-04-01T02:06:04;9.20;99.90
18067;DHT22;9158;51.528;7.192;2023-04-01T02:06:41;9.20;99.90
18067;DHT22;9158;51.528;7.192;2023-04-01T02:07:18;9.20;99.90
18067;DHT22;9158;51.528;7.192;2023-04-01T02:07:55;9.20;99.90
18067;DHT22;9158;51.528;7.192;2023-04-01T02:08:32;9.20;99.90
18067;DHT22;9158;51.528;7.192;2023-04-01T02:09:07;9.20;99.90
18067;DHT22;9158;51.528;7.192;2023-04-01T02:09:41;9.20;99.90
18067;DHT22;9158;51.528;7.192;2023-04-01T02:12:19;9.20;99.90
18067;DHT22;9158;51.528;7.192;2023-04-01T02:12:57;9.20;99.90
18067;DHT22;9158;51.528;7.192;2023-04-01T02:13:35;9.20;99.90
18067;DHT22;9158;51.528;7.192;2023-04-01T02:14:11;9.20;99.90
18067;DHT22;9158;51.528;7.192;2023-04-01T02:14:49;9.20;92.10
18067;DHT22;9158;51.528;7.192;2023-04-01T02:15:23;9.20;5.80
18067;DHT22;9158;51.528;7.192;2023-04-01T02:15:58;9.20;1.00
18067;DHT22;9158;51.528;7.192;2023-04-01T02:16:33;9.20;1.00
18067;DHT22;9158;51.528;7.192;2023-04-01T02:17:08;9.20;1.00
18067;DHT22;9158;51.528;7.192;2023-04-01T02:17:43;9.20;1.00
18067;DHT22;9158;51.528;7.192;2023-04-01T02:18:17;9.20;1.00
18067;DHT22;9158;51.528;7.192;2023-04-01T02:18:51;9.20;1.00
18067;DHT22;9158;51.528;7.192;2023-04-01T02:19:27;9.20;1.00
18067;DHT22;9158;51.528;7.192;2023-04-01T02:20:05;9.20;1.00
18067;DHT22;9158;51.528;7.192;2023-04-01T02:20:37;9.20;1.00
18067;DHT22;9158;51.528;7.192;2023-04-01T02:21:11;9.20;1.00
18067;DHT22;9158;51.528;7.192;2023-04-01T02:21:44;9.20;1.00
18067;DHT22;9158;51.528;7.192;2023-04-01T02:22:19;9.20;1.00
18067;DHT22;9158;51.528;7.192;2023-04-01T02:22:53;9.30;1.00
18067;DHT22;9158;51.528;7.192;2023-04-01T02:23:26;9.20;1.00
18067;DHT22;9158;51.528;7.192;2023-04-01T02:24:00;9.20;1.00
18067;DHT22;9158;51.528;7.192;2023-04-01T02:24:35;9.30;1.00
18067;DHT22;9158;51.528;7.192;2023-04-01T02:25:12;9.20;1.00
18067;DHT22;9158;51.528;7.192;2023-04-01T02:25:45;9.20;1.00
18067;DHT22;9158;51.528;7.192;2023-04-01T02:26:18;9.20;1.00
18067;DHT22;9158;51.528;7.192;2023-04-01T02:26:51;9.20;1.00
18067;DHT22;9158;51.528;7.192;2023-04-01T02:27:24;9.20;1.00
18067;DHT22;9158;51.528;7.192;2023-04-01T02:27:57;9.20;1.00
18067;DHT22;9158;51.528;7.192;2023-04-01T02:28:31;9.20;1.00
18067;DHT22;9158;51.528;7.192;2023-04-01T02:29:08;9.20;1.00
18067;DHT22;9158;51.528;7.192;2023-04-01T02:29:40;9.20;1.00
18067;DHT22;9158;51.528;7.192;2023-04-01T02:30:14;9.20;1.00
18067;DHT22;9158;51.528;7.192;2023-04-01T02:30:47;9.20;1.00
18067;DHT22;9158;51.528;7.192;2023-04-01T02:31:20;9.20;1.00
18067;DHT22;9158;51.528;7.192;2023-04-01T02:31:53;9.20;1.00
18067;DHT22;9158;51.528;7.192;2023-04-01T02:32:27;9.20;1.00
18067;DHT22;9158;51.528;7.192;2023-04-01T02:32:58;9.20;1.00
18067;DHT22;9158;51.528;7.192;2023-04-01T02:33:31;9.20;1.00
18067;DHT22;9158;51.528;7.192;2023-04-01T02:34:02;9.20;1.00
18067;DHT22;9158;51.528;7.192;2023-04-01T02:34:35;9.20;1.00
18067;DHT22;9158;51.528;7.192;2023-04-01T02:35:09;9.20;1.00
18067;DHT22;9158;51.528;7.192;2023-04-01T02:35:41;9.20;1.00
18067;DHT22;9158;51.528;7.192;2023-04-01T02:36:15;9.20;1.00
18067;DHT22;9158;51.528;7.192;2023-04-01T02:36:48;9.20;1.00
18067;DHT22;9158;51.528;7.192;2023-04-01T02:37:19;9.20;1.00
18067;DHT22;9158;51.528;7.192;2023-04-01T02:37:52;9.20;1.00
18067;DHT22;9158;51.528;7.192;2023-04-01T02:38:26;9.20;1.00
18067;DHT22;9158;51.528;7.192;2023-04-01T02:38:58;9.20;1.00
18067;DHT22;9158;51.528;7.192;2023-04-01T02:39:33;9.20;1.00
18067;DHT22;9158;51.528;7.192;2023-04-01T02:40:06;9.20;1.00
18067;DHT22;9158;51.528;7.192;2023-04-01T02:40:43;9.20;1.00
18067;DHT22;9158;51.528;7.192;2023-04-01T02:41:14;9.20;1.00
18067;DHT22;9158;51.528;7.192;2023-04-01T02:41:46;9.20;1.00
18067;DHT22;9158;51.528;7.192;2023-04-01T02:42:17;9.20;1.00
18067;DHT22;9158;51.528;7.192;2023-04-01T02:42:48;9.20;1.00
18067;DHT22;9158;51.528;7.192;2023-04-01T02:43:20;9.20;1.00
18067;DHT22;9158;51.528;7.192;2023-04-01T02:43:52;9.20;1.00
18067;DHT22;9158;51.528;7.192;2023-04-01T02:44:23;9.20;6.60
18067;DHT22;9158;51.528;7.192;2023-04-01T02:44:54;9.20;22.00
18067;DHT22;9158;51.528;7.192;2023-04-01T02:45:26;9.20;64.70
18067;DHT22;9158;51.528;7.192;2023-04-01T02:45:57;9.20;99.90
18067;DHT22;9158;51.528;7.192;2023-04-01T02:46:28;9.20;99.90
18067;DHT22;9158;51.528;7.192;2023-04-01T02:47:00;9.20;99.90
18067;DHT22;9158;51.528;7.192;2023-04-01T02:47:31;9.20;99.90
18067;DHT22;9158;51.528;7.192;2023-04-01T02:48:03;9.20;99.90
18067;DHT22;9158;51.528;7.192;2023-04-01T02:48:35;9.20;99.90
18067;DHT22;9158;51.528;7.192;2023-04-01T02:49:06;9.20;99.90
18067;DHT22;9158;51.528;7.192;2023-04-01T02:49:37;9.20;99.90
18067;DHT22;9158;51.528;7.192;2023-04-01T02:50:10;9.20;99.90
18067;DHT22;9158;51.528;7.192;2023-04-01T02:50:41;9.20;99.90
18067;DHT22;9158;51.528;7.192;2023-04-01T02:51:13;9.20;99.90
18067;DHT22;9158;51.528;7.192;2023-04-01T02:51:45;9.20;99.90
18067;DHT22;9158;51.528;7.192;2023-04-01T02:52:16;9.20;99.90
18067;DHT22;9158;51.528;7.192;2023-04-01T02:52:47;9.20;99.90
18067;DHT22;9158;51.528;7.192;2023-04-01T02:53:20;9.20;99.90
18067;DHT22;9158;51.528;7.192;2023-04-01T02:53:51;9.20;99.90
18067;DHT22;9158;51.528;7.192;2023-04-01T02:54:22;9.20;99.90
18067;DHT22;9158;51.528;7.192;2023-04-01T02:54:55;9.20;99.90
18067;DHT22;9158;51.528;7.192;2023-04-01T02:55:26;9.20;99.90
18067;DHT22;9158;51.528;7.192;2023-04-01T02:55:57;9.20;99.90
18067;DHT22;9158;51.528;7.192;2023-04-01T02:56:29;9.20;99.90
18067;DHT22;9158;51.528;7.192;2023-04-01T02:57:00;9.20;99.90
18067;DHT22;9158;51.528;7.192;2023-04-01T02:57:31;9.20;99.90
18067;DHT22;9158;51.528;7.192;2023-04-01T02:58:04;9.10;99.90
18067;DHT22;9158;51.528;7.192;2023-04-01T02:58:35;9.20;99.90
18067;DHT22;9158;51.528;7.192;2023-04-01T02:59:06;10.20;99.90
18067;DHT22;9158;51.528;7.192;2023-04-01T02:59:38;9.20;99.90
18067;DHT22;9158;51.528;7.192;2023-04-01T03:00:10;9.20;99.90
18067;DHT22;9158;51.528;7.192;2023-04-01T03:00:42;9.20;99.90
18067;DHT22;9158;51.528;7.192;2023-04-01T03:01:14;9.20;99.90
18067;DHT22;9158;51.528;7.192;2023-04-01T03:01:45;9.20;99.90
18067;DHT22;9158;51.528;7.192;2023-04-01T03:02:16;9.20;99.90
18067;DHT22;9158;51.528;7.192;2023-04-01T03:02:48;9.20;99.90
18067;DHT22;9158;51.528;7.192;2023-04-01T03:03:20;9.20;99.90
18067;DHT22;9158;51.528;7.192;2023-04-01T03:03:51;9.20;99.90
18067;DHT22;9158;51.528;7.192;2023-04-01T03:04:23;9.10;99.90
18067;DHT22;9158;51.528;7.192;2023-04-01T03:04:54;9.20;99.90
18067;DHT22;9158;51.528;7.192;2023-04-01T03:05:25;9.20;99.90
18067;DHT22;9158;51.528;7.192;2023-04-01T03:05:57;9.20;99.90
18067;DHT22;9158;51.528;7.192;2023-04-01T03:06:30;9.20;99.90
18067;DHT22;9158;51.528;7.192;2023-04-01T03:07:02;9.20;99.90
18067;DHT22;9158;51.528;7.192;2023-04-01T03:07:35;9.10;99.90
18067;DHT22;9158;51.528;7.192;2023-04-01T03:08:06;9.20;99.90
18067;DHT22;9158;51.528;7.192;2023-04-01T03:08:37;9.20;99.90
18067;DHT22;9158;51.528;7.192;2023-04-01T03:09:09;9.10;99.90
18067;DHT22;9158;51.528;7.192;2023-04-01T03:09:41;9.20;99.90
18067;DHT22;9158;51.528;7.192;2023-04-01T03:10:12;9.10;99.90
18067;DHT22;9158;51.528;7.192;2023-04-01T03:10:44;9.20;1.00
18067;DHT22;9158;51.528;7.192;2023-04-01T03:11:15;9.10;1.00
18067;DHT22;9158;51.528;7.192;2023-04-01T03:11:47;9.20;1.00
18067;DHT22;9158;51.528;7.192;2023-04-01T03:12:19;9.20;1.00
18067;DHT22;9158;51.528;7.192;2023-04-01T03:12:54;9.10;1.00
18067;DHT22;9158;51.528;7.192;2023-04-01T03:13:25;9.10;1.00
18067;DHT22;9158;51.528;7.192;2023-04-01T03:13:58;9.10;1.00
18067;DHT22;9158;51.528;7.192;2023-04-01T03:14:29;9.10;1.00
18067;DHT22;9158;51.528;7.192;2023-04-01T03:15:01;9.10;1.00
18067;DHT22;9158;51.528;7.192;2023-04-01T03:15:33;9.10;1.00
18067;DHT22;9158;51.528;7.192;2023-04-01T03:16:05;9.10;1.00
18067;DHT22;9158;51.528;7.192;2023-04-01T03:16:36;9.10;1.00
18067;DHT22;9158;51.528;7.192;2023-04-01T03:17:08;9.20;1.00
18067;DHT22;9158;51.528;7.192;2023-04-01T03:17:39;9.10;1.00
18067;DHT22;9158;51.528;7.192;2023-04-01T03:18:11;9.10;1.00
18067;DHT22;9158;51.528;7.192;2023-04-01T03:18:42;9.10;1.00
18067;DHT22;9158;51.528;7.192;2023-04-01T03:19:14;9.10;1.00
18067;DHT22;9158;51.528;7.192;2023-04-01T03:19:46;9.10;1.00
18067;DHT22;9158;51.528;7.192;2023-04-01T03:20:18;9.10;1.00
18067;DHT22;9158;51.528;7.192;2023-04-01T03:20:49;9.10;1.00
18067;DHT22;9158;51.528;7.192;2023-04-01T03:21:22;9.10;1.00
18067;DHT22;9158;51.528;7.192;2023-04-01T03:21:55;9.10;1.00
18067;DHT22;9158;51.528;7.192;2023-04-01T03:22:26;9.10;1.00
18067;DHT22;9158;51.528;7.192;2023-04-01T03:22:58;9.10;1.00
18067;DHT22;9158;51.528;7.192;2023-04-01T03:23:31;9.10;1.00
18067;DHT22;9158;51.528;7.192;2023-04-01T03:24:02;9.10;1.00
18067;DHT22;9158;51.528;7.192;2023-04-01T03:24:34;9.10;1.00
18067;DHT22;9158;51.528;7.192;2023-04-01T03:25:06;9.10;1.00
18067;DHT22;9158;51.528;7.192;2023-04-01T03:25:38;9.10;1.00
18067;DHT22;9158;51.528;7.192;2023-04-01T03:26:10;9.10;1.00
18067;DHT22;9158;51.528;7.192;2023-04-01T03:26:42;9.10;1.00
18067;DHT22;9158;51.528;7.192;2023-04-01T03:27:13;9.10;1.00
18067;DHT22;9158;51.528;7.192;2023-04-01T03:27:45;9.10;1.00
18067;DHT22;9158;51.528;7.192;2023-04-01T03:28:17;9.10;1.00
18067;DHT22;9158;51.528;7.192;2023-04-01T03:28:48;9.10;1.00
18067;DHT22;9158;51.528;7.192;2023-04-01T03:29:19;9.10;1.00
18067;DHT22;9158;51.528;7.192;2023-04-01T03:29:51;9.10;1.00
18067;DHT22;9158;51.528;7.192;2023-04-01T03:30:22;9.10;1.00
18067;DHT22;9158;51.528;7.192;2023-04-01T03:30:55;9.10;1.00
18067;DHT22;9158;51.528;7.192;2023-04-01T03:31:27;9.10;1.00
18067;DHT22;9158;51.528;7.192;2023-04-01T03:32:01;9.10;1.00
18067;DHT22;9158;51.528;7.192;2023-04-01T03:32:32;9.10;1.00
18067;DHT22;9158;51.528;7.192;2023-04-01T03:33:04;9.10;1.00
18067;DHT22;9158;51.528;7.192;2023-04-01T03:33:36;9.10;1.00
18067;DHT22;9158;51.528;7.192;2023-04-01T03:34:08;9.10;16.20
18067;DHT22;9158;51.528;7.192;2023-04-01T03:34:40;9.10;1.00
18067;DHT22;9158;51.528;7.192;2023-04-01T03:35:12;9.10;49.50
18067;DHT22;9158;51.528;7.192;2023-04-01T03:35:43;9.10;22.40
18067;DHT22;9158;51.528;7.192;2023-04-01T03:36:14;9.10;28.10
18067;DHT22;9158;51.528;7.192;2023-04-01T03:36:46;9.10;44.30
18067;DHT22;9158;51.528;7.192;2023-04-01T03:37:19;9.10;50.50
18067;DHT22;9158;51.528;7.192;2023-04-01T03:37:51;9.10;99.90
18067;DHT22;9158;51.528;7.192;2023-04-01T03:38:22;9.10;94.40
18067;DHT22;9158;51.528;7.192;2023-04-01T03:38:54;9.10;99.90
18067;DHT22;9158;51.528;7.192;2023-04-01T03:39:36;9.10;99.90
18067;DHT22;9158;51.528;7.192;2023-04-01T03:40:08;9.10;99.90
18067;DHT22;9158;51.528;7.192;2023-04-01T03:40:42;9.10;99.90
18067;DHT22;9158;51.528;7.192;2023-04-01T03:41:14;9.10;99.90
18067;DHT22;9158;51.528;7.192;2023-04-01T03:41:45;9.10;99.90
18067;DHT22;9158;51.528;7.192;2023-04-01T03:42:17;9.10;99.90
18067;DHT22;9158;51.528;7.192;2023-04-01T03:42:49;9.10;99.90
18067;DHT22;9158;51.528;7.192;2023-04-01T03:43:20;9.10;99.90
18067;DHT22;9158;51.528;7.192;2023-04-01T03:43:53;9.10;99.90
18067;DHT22;9158;51.528;7.192;2023-04-01T03:44:24;9.10;99.90
18067;DHT22;9158;51.528;7.192;2023-04-01T03:44:58;9.10;99.90
18067;DHT22;9158;51.528;7.192;2023-04-01T03:45:30;9.00;99.90
18067;DHT22;9158;51.528;7.192;2023-04-01T03:46:01;9.10;99.90